Time;durP1;ratioP1;P1;durP2;ratioP2;P2;SDS_P1;SDS_P2;PMS_P1;PMS_P2;Temp;Humidity;BMP_temperature;BMP_pressure;BME280_temperature;BME280_humidity;BME280_pressure;Samples;Min_cycle;Max_cycle;Signal;HPM_P1;HPM_P2
2021/03/16 00:01:28;;;;;;;5.78;3.30;;;;;;;4.08;81.31;100117.19;5003134;28;20049;-71
2021/03/16 00:03:58;;;;;;;5.60;2.83;;;;;;;4.13;81.30;100123.34;4999385;28;20038;-71
2021/03/16 00:06:44;;;;;;;7.15;3.30;;;;;;;4.07;81.86;100127.63;5003020;28;20124;-72
2021/03/16 00:09:10;;;;;;;5.18;2.83;;;;;;;4.11;81.19;100127.69;5003834;28;20514;-71
2021/03/16 00:11:35;;;;;;;7.20;3.08;;;;;;;4.01;81.87;100135.34;5002048;28;20779;-72
2021/03/16 00:14:00;;;;;;;6.65;3.88;;;;;;;4.10;81.56;100125.06;5000484;28;20511;-71
2021/03/16 00:16:26;;;;;;;6.68;3.80;;;;;;;4.09;81.58;100138.97;5000693;28;20145;-72
2021/03/16 00:18:52;;;;;;;5.97;3.25;;;;;;;4.01;82.56;100133.66;5002244;28;20053;-71
2021/03/16 00:21:18;;;;;;;9.10;4.32;;;;;;;3.97;83.09;100139.66;5003582;28;20061;-71
2021/03/16 00:23:43;;;;;;;7.25;3.88;;;;;;;3.96;82.70;100140.53;5000805;28;20520;-71
2021/03/16 00:26:08;;;;;;;8.07;4.20;;;;;;;3.92;83.34;100170.91;5000246;28;20129;-71
2021/03/16 00:28:34;;;;;;;7.22;3.95;;;;;;;3.90;84.05;100149.16;5001804;28;20069;-71
2021/03/16 00:30:59;;;;;;;9.63;4.40;;;;;;;3.81;84.37;100142.91;5003484;28;20142;-71
2021/03/16 00:33:24;;;;;;;9.27;4.63;;;;;;;3.80;84.72;100148.97;5002857;28;20033;-71
2021/03/16 00:35:50;;;;;;;6.72;3.85;;;;;;;3.81;84.58;100151.63;4999920;28;20414;-71
2021/03/16 00:38:15;;;;;;;7.50;4.35;;;;;;;3.79;84.79;100155.06;5000013;28;20441;-71
2021/03/16 00:40:41;;;;;;;6.18;4.47;;;;;;;3.79;85.06;100149.84;5002611;28;20107;-71
2021/03/16 00:43:06;;;;;;;6.57;4.78;;;;;;;3.79;84.91;100155.94;5003530;28;20037;-71
2021/03/16 00:45:31;;;;;;;11.50;4.10;;;;;;;3.87;84.12;100159.53;5000529;28;20047;-71
2021/03/16 00:47:57;;;;;;;9.38;4.07;;;;;;;3.84;84.30;100158.63;4993424;28;20524;-71
2021/03/16 00:50:23;;;;;;;9.82;3.88;;;;;;;3.94;83.76;100161.38;4999625;28;20058;-72
2021/03/16 00:52:48;;;;;;;8.38;4.13;;;;;;;3.92;83.92;100173.53;5004161;28;20033;-71
2021/03/16 00:55:14;;;;;;;10.63;4.57;;;;;;;3.91;83.69;100169.19;4998211;28;20412;-71
2021/03/16 00:57:39;;;;;;;8.68;4.70;;;;;;;3.93;83.59;100180.53;5002525;28;20085;-71
2021/03/16 01:00:05;;;;;;;6.65;3.90;;;;;;;3.97;83.47;100185.78;5003754;28;20053;-71
2021/03/16 01:02:31;;;;;;;11.45;4.95;;;;;;;3.95;83.57;100190.97;5005012;28;20401;-71
2021/03/16 01:04:56;;;;;;;9.52;5.20;;;;;;;3.94;83.58;100178.78;5007167;28;20029;-71
2021/03/16 01:07:22;;;;;;;7.72;4.70;;;;;;;3.97;83.15;100177.97;5007134;28;20512;-72
2021/03/16 01:09:47;;;;;;;7.25;4.10;;;;;;;3.94;82.93;100174.44;5003628;28;20035;-71
2021/03/16 01:12:12;;;;;;;6.72;3.85;;;;;;;4.04;82.82;100177.19;5003732;28;20026;-71
2021/03/16 01:14:38;;;;;;;6.93;4.50;;;;;;;4.03;82.62;100185.88;5005873;28;20540;-71
2021/03/16 01:17:03;;;;;;;9.73;5.00;;;;;;;4.04;82.91;100177.19;5006694;28;20038;-71
2021/03/16 01:19:29;;;;;;;8.35;4.28;;;;;;;4.12;81.95;100181.66;5005724;28;20037;-71
2021/03/16 01:21:54;;;;;;;8.32;4.75;;;;;;;4.06;82.18;100186.81;5021132;28;20042;-71
2021/03/16 01:24:19;;;;;;;7.80;3.92;;;;;;;4.16;82.12;100187.81;5006820;28;20041;-71
2021/03/16 01:26:45;;;;;;;10.77;3.90;;;;;;;4.06;82.29;100189.44;5003421;28;20030;-71
2021/03/16 01:29:10;;;;;;;7.10;4.40;;;;;;;4.08;82.41;100179.84;5003364;28;20037;-71
2021/03/16 01:31:36;;;;;;;8.63;3.97;;;;;;;4.10;82.50;100183.38;5005223;28;20034;-71
2021/03/16 01:34:01;;;;;;;7.78;3.85;;;;;;;4.06;82.64;100210.31;5006616;28;20369;-71
2021/03/16 01:36:27;;;;;;;8.10;5.40;;;;;;;4.03;83.49;100193.72;5004384;28;20057;-71
2021/03/16 01:38:52;;;;;;;10.57;5.53;;;;;;;4.04;83.54;100192.88;5003150;28;20039;-71
2021/03/16 01:41:18;;;;;;;7.13;4.95;;;;;;;4.03;83.12;100191.97;5003075;28;20042;-71
2021/03/16 01:43:43;;;;;;;7.65;4.65;;;;;;;4.01;83.67;100198.03;5005875;28;20041;-71
2021/03/16 01:46:08;;;;;;;7.03;4.75;;;;;;;3.98;83.90;100203.19;5006228;28;20026;-72
2021/03/16 01:48:36;;;;;;;6.38;4.65;;;;;;;4.01;83.32;100198.03;5004677;28;20561;-71
2021/03/16 01:51:04;;;;;;;8.18;4.80;;;;;;;3.93;84.06;100211.88;5002861;28;20038;-72
2021/03/16 01:53:29;;;;;;;7.50;4.72;;;;;;;3.93;84.12;100209.25;5003993;28;20121;-72
2021/03/16 01:55:57;;;;;;;7.95;4.20;;;;;;;3.89;84.91;100219.63;5006049;28;20124;-72
2021/03/16 01:58:42;;;;;;;7.10;4.30;;;;;;;3.84;84.78;100218.66;5002993;28;20053;-71
2021/03/16 02:01:26;;;;;;;8.07;4.82;;;;;;;3.76;85.62;100210.69;5008502;28;20053;-72
2021/03/16 02:04:13;;;;;;;8.43;5.20;;;;;;;3.77;85.25;100214.19;5009563;28;20460;-72
2021/03/16 02:07:03;;;;;;;8.48;4.90;;;;;;;3.71;85.60;100221.06;5012817;28;20049;-72
2021/03/16 02:10:06;;;;;;;5.57;4.10;;;;;;;3.64;85.89;100229.66;5003482;28;20040;-72
2021/03/16 02:13:10;;;;;;;9.27;4.43;;;;;;;3.62;86.07;100220.06;5012118;28;20585;-71
2021/03/16 02:16:01;;;;;;;7.38;4.63;;;;;;;3.56;86.66;100227.75;5009693;28;20051;-71
2021/03/16 02:18:55;;;;;;;6.22;4.05;;;;;;;3.54;86.72;100222.53;5011398;28;20049;-72
2021/03/16 02:21:41;;;;;;;8.63;4.70;;;;;;;3.62;86.12;100235.72;5013780;28;20108;-71
2021/03/16 02:24:49;;;;;;;7.20;3.33;;;;;;;3.61;85.40;100240.03;5002277;28;20037;-71
2021/03/16 02:28:09;;;;;;;5.63;3.60;;;;;;;3.54;85.81;100232.06;5010593;28;20060;-71
2021/03/16 02:30:55;;;;;;;5.35;3.13;;;;;;;3.55;85.91;100246.88;5011696;28;20044;-71
2021/03/16 02:33:42;;;;;;;7.28;2.95;;;;;;;3.51;85.34;100253.75;5003227;28;20048;-71
2021/03/16 02:36:27;;;;;;;4.75;3.10;;;;;;;3.42;85.70;100279.69;5002367;28;20072;-71
2021/03/16 02:39:13;;;;;;;5.18;2.58;;;;;;;3.33;84.81;100249.13;5005889;28;20076;-72
2021/03/16 02:41:59;;;;;;;3.40;2.00;;;;;;;3.23;85.36;100262.81;5012230;28;20052;-71
2021/03/16 02:44:43;;;;;;;3.35;1.90;;;;;;;3.19;84.84;100287.94;5002295;28;20061;-71
2021/03/16 02:47:27;;;;;;;3.90;1.88;;;;;;;3.06;85.09;100255.53;5002477;28;20049;-71
2021/03/16 02:50:12;;;;;;;4.78;1.92;;;;;;;3.01;85.95;100262.41;5005128;28;20040;-71
2021/03/16 02:52:57;;;;;;;4.38;2.22;;;;;;;2.98;86.50;100270.16;5001683;28;20076;-71
2021/03/16 02:55:43;;;;;;;4.50;2.35;;;;;;;3.02;86.15;100287.63;5004100;28;20469;-71
2021/03/16 02:58:28;;;;;;;5.47;2.88;;;;;;;2.96;86.52;100277.06;5004258;28;20052;-71
2021/03/16 03:01:15;;;;;;;5.13;2.45;;;;;;;2.92;85.92;100295.22;5001352;28;20077;-71
2021/03/16 03:04:01;;;;;;;4.40;2.55;;;;;;;2.77;86.26;100277.53;5001879;28;20076;-71
2021/03/16 03:06:46;;;;;;;4.95;2.45;;;;;;;2.73;86.29;100287.00;5004339;28;20048;-71
2021/03/16 03:09:33;;;;;;;6.32;2.63;;;;;;;2.71;86.40;100287.81;5003570;28;20053;-71
2021/03/16 03:12:17;;;;;;;3.83;2.42;;;;;;;2.65;86.75;100288.56;5001041;28;20046;-71
2021/03/16 03:15:06;;;;;;;5.97;2.45;;;;;;;2.71;86.69;100293.91;5001400;28;20636;-71
2021/03/16 03:17:50;;;;;;;4.43;2.58;;;;;;;2.70;86.81;100302.59;5001284;28;20544;-71
2021/03/16 03:20:36;;;;;;;4.00;2.50;;;;;;;2.72;87.05;100297.38;5003089;28;20065;-71
2021/03/16 03:23:25;;;;;;;4.20;2.47;;;;;;;2.77;87.12;100314.00;5004530;28;20137;-71
2021/03/16 03:26:16;;;;;;;4.63;2.50;;;;;;;2.78;86.52;100305.38;5010061;28;20045;-70
2021/03/16 03:29:00;;;;;;;5.53;3.13;;;;;;;2.79;87.57;100307.97;5001098;28;20049;-71
2021/03/16 03:31:47;;;;;;;4.50;2.58;;;;;;;2.87;86.84;100309.88;5004067;28;20052;-71
2021/03/16 03:34:35;;;;;;;4.00;2.42;;;;;;;2.89;87.08;100316.88;5003184;28;20491;-71
2021/03/16 03:37:22;;;;;;;3.70;2.40;;;;;;;2.93;86.94;100336.94;5000815;28;20048;-71
2021/03/16 03:40:08;;;;;;;5.25;2.60;;;;;;;2.94;87.14;100319.59;5000817;28;20045;-72
2021/03/16 03:43:06;;;;;;;4.90;2.95;;;;;;;2.93;86.91;100336.94;5000834;28;20147;-71
2021/03/16 03:45:52;;;;;;;5.93;3.13;;;;;;;2.96;87.23;100339.66;5000863;28;20096;-71
2021/03/16 03:48:37;;;;;;;5.25;2.83;;;;;;;3.01;86.55;100344.94;5002883;28;20057;-71
2021/03/16 03:51:24;;;;;;;5.82;3.15;;;;;;;2.98;86.65;100347.47;5004066;28;20048;-71
2021/03/16 03:54:08;;;;;;;6.03;3.35;;;;;;;2.97;85.63;100357.03;5000965;28;20092;-71
2021/03/16 03:56:53;;;;;;;4.47;2.75;;;;;;;2.97;86.16;100351.81;5000439;28;20559;-71
2021/03/16 03:59:42;;;;;;;5.93;3.40;;;;;;;2.95;86.50;100360.47;5002288;28;20122;-71
2021/03/16 04:02:27;;;;;;;5.68;3.20;;;;;;;2.93;86.74;100368.22;5003412;28;20120;-71
2021/03/16 04:05:12;;;;;;;7.45;3.25;;;;;;;2.93;85.72;100368.22;5000270;28;20053;-72
2021/03/16 04:07:56;;;;;;;6.72;3.17;;;;;;;2.93;86.35;100364.75;5000748;28;20050;-71
2021/03/16 04:10:40;;;;;;;4.80;2.95;;;;;;;2.97;85.65;100375.28;5002983;28;20607;-71
2021/03/16 04:13:24;;;;;;;8.20;3.30;;;;;;;2.96;86.11;100378.75;5003637;28;20104;-71
2021/03/16 04:16:08;;;;;;;4.53;3.00;;;;;;;2.98;85.76;100377.03;5000146;28;20040;-71
2021/03/16 04:18:53;;;;;;;5.82;3.03;;;;;;;2.99;85.70;100371.00;5000225;28;20193;-71
2021/03/16 04:21:37;;;;;;;7.43;3.70;;;;;;;3.00;85.62;100374.47;5001980;28;20045;-71
2021/03/16 04:24:22;;;;;;;5.38;3.28;;;;;;;3.02;85.18;100376.28;5003291;28;20049;-71
2021/03/16 04:27:07;;;;;;;5.00;2.95;;;;;;;3.01;85.77;100382.34;4999860;28;20159;-71
2021/03/16 04:29:51;;;;;;;4.90;2.53;;;;;;;3.07;84.70;100382.47;4999984;28;20053;-71
2021/03/16 04:32:35;;;;;;;5.55;2.75;;;;;;;3.00;84.76;100404.03;5001754;28;20044;-71
2021/03/16 04:35:19;;;;;;;5.30;3.03;;;;;;;2.95;85.75;100390.00;5003221;28;20052;-71
2021/03/16 04:38:03;;;;;;;10.13;3.65;;;;;;;2.95;84.42;100395.22;4999979;28;20069;-72
2021/03/16 04:40:47;;;;;;;8.70;2.80;;;;;;;2.94;83.99;100398.69;5003082;28;20049;-71
2021/03/16 04:43:31;;;;;;;8.20;2.65;;;;;;;2.92;84.09;100409.91;5002046;28;20188;-71
2021/03/16 04:46:16;;;;;;;7.07;3.17;;;;;;;2.87;84.25;100425.44;5007636;28;20675;-71
2021/03/16 04:49:00;;;;;;;6.50;3.35;;;;;;;2.89;84.66;100413.34;5005458;28;20049;-71
2021/03/16 04:51:44;;;;;;;5.45;3.05;;;;;;;2.90;84.13;100425.50;5002933;28;20065;-72
2021/03/16 04:54:29;;;;;;;6.90;2.72;;;;;;;2.90;84.83;100420.31;5002321;28;20129;-74
2021/03/16 04:57:13;;;;;;;10.20;2.92;;;;;;;2.92;83.92;100426.44;4999664;28;20638;-72
2021/03/16 04:59:57;;;;;;;6.68;3.03;;;;;;;2.89;83.83;100431.59;4999608;28;20227;-72
2021/03/16 05:02:41;;;;;;;5.65;2.72;;;;;;;2.95;83.21;100441.28;5002406;28;20049;-72
2021/03/16 05:05:25;;;;;;;6.38;2.35;;;;;;;2.92;82.99;100421.22;5002515;28;20053;-72
2021/03/16 05:08:09;;;;;;;6.50;2.47;;;;;;;2.93;82.69;100428.19;4999751;28;20045;-72
2021/03/16 05:10:53;;;;;;;7.63;2.20;;;;;;;2.95;82.44;100438.66;4999874;28;20420;-71
2021/03/16 05:13:37;;;;;;;4.50;2.45;;;;;;;2.94;82.05;100440.41;5001605;28;20168;-72
2021/03/16 05:16:21;;;;;;;4.82;2.45;;;;;;;2.97;81.68;100432.63;5002818;28;20523;-72
2021/03/16 05:19:05;;;;;;;5.93;2.38;;;;;;;2.97;81.44;100440.47;4999533;28;20516;-71
2021/03/16 05:21:49;;;;;;;5.00;2.20;;;;;;;2.93;81.13;100451.66;4999552;28;20068;-75
2021/03/16 05:24:32;;;;;;;5.05;2.25;;;;;;;2.93;81.00;100454.25;5001205;28;20478;-72
2021/03/16 05:27:17;;;;;;;5.22;1.73;;;;;;;3.02;80.64;100451.88;5013273;28;20132;-72
2021/03/16 05:30:01;;;;;;;10.18;1.65;;;;;;;3.00;80.27;100468.34;4999287;28;20056;-71
2021/03/16 05:32:45;;;;;;;3.72;1.70;;;;;;;3.00;80.40;100466.59;5002660;28;20044;-72
2021/03/16 05:35:29;;;;;;;3.08;1.60;;;;;;;3.02;79.98;100483.16;5005162;28;20095;-72
2021/03/16 05:38:14;;;;;;;6.25;2.08;;;;;;;3.04;79.77;100481.47;5003058;28;20081;-72
2021/03/16 05:41:00;;;;;;;4.80;2.00;;;;;;;3.03;79.49;100484.91;5003064;28;20068;-72
2021/03/16 05:43:47;;;;;;;4.70;1.98;;;;;;;3.06;78.01;100468.47;5006029;28;20092;-72
2021/03/16 05:46:31;;;;;;;6.45;2.00;;;;;;;3.10;78.16;100485.09;5009757;28;20040;-72
2021/03/16 05:49:16;;;;;;;5.53;1.73;;;;;;;3.06;78.39;100489.31;5003099;28;20053;-72
2021/03/16 05:52:00;;;;;;;3.78;2.10;;;;;;;3.01;78.68;100486.63;5002819;28;20057;-71
2021/03/16 05:54:44;;;;;;;3.50;1.50;;;;;;;3.04;78.13;100491.91;5005504;28;20507;-72
2021/03/16 05:57:28;;;;;;;4.63;1.88;;;;;;;3.03;78.24;100500.56;5005171;28;20449;-71
2021/03/16 06:00:13;;;;;;;5.80;1.50;;;;;;;3.04;78.62;100506.69;5002469;28;20156;-72
2021/03/16 06:02:56;;;;;;;4.38;1.48;;;;;;;3.19;76.99;100504.41;5002602;28;20527;-72
2021/03/16 06:05:40;;;;;;;4.63;2.00;;;;;;;3.14;77.36;100508.63;5004402;28;20052;-72
2021/03/16 06:08:24;;;;;;;4.97;1.60;;;;;;;3.20;76.38;100521.84;5004763;28;20044;-72
2021/03/16 06:11:09;;;;;;;5.40;1.85;;;;;;;3.21;76.63;100522.72;5002059;28;20047;-71
2021/03/16 06:13:55;;;;;;;4.65;1.75;;;;;;;3.21;77.08;100530.53;5001600;28;20396;-70
2021/03/16 06:16:39;;;;;;;5.25;2.17;;;;;;;3.22;76.33;100537.50;5005318;28;20149;-71
2021/03/16 06:19:28;;;;;;;6.07;1.95;;;;;;;3.26;76.47;100541.97;4997035;28;20444;-71
2021/03/16 06:22:18;;;;;;;4.15;1.63;;;;;;;3.19;76.51;100537.44;5003075;28;20046;-70
2021/03/16 06:25:02;;;;;;;4.70;1.80;;;;;;;3.29;76.17;100548.13;5001343;28;20053;-70
2021/03/16 06:27:47;;;;;;;4.32;2.35;;;;;;;3.28;75.88;100551.59;5004611;28;20057;-71
2021/03/16 06:30:31;;;;;;;4.80;1.67;;;;;;;3.32;75.64;100556.88;5003386;28;20053;-71
2021/03/16 06:33:23;;;;;;;4.07;2.33;;;;;;;3.31;75.35;100558.59;5001352;28;20114;-71
2021/03/16 06:36:08;;;;;;;7.93;2.00;;;;;;;3.29;75.87;100570.72;5005275;28;20061;-71
2021/03/16 06:38:53;;;;;;;2.95;1.75;;;;;;;3.29;75.99;100557.69;5000616;28;20045;-71
2021/03/16 06:41:37;;;;;;;5.07;2.45;;;;;;;3.29;76.56;100570.72;5007104;28;20053;-70
2021/03/16 06:44:22;;;;;;;5.82;2.40;;;;;;;3.35;75.79;100569.97;5004645;28;20119;-70
2021/03/16 06:47:14;;;;;;;6.75;2.17;;;;;;;3.25;75.79;100588.03;5000067;28;20114;-70
2021/03/16 06:49:58;;;;;;;6.13;2.17;;;;;;;3.28;76.08;100576.81;5000804;28;20104;-70
2021/03/16 06:52:48;;;;;;;8.38;2.47;;;;;;;3.40;75.30;100578.81;5003425;28;20178;-70
2021/03/16 06:55:32;;;;;;;5.43;2.55;;;;;;;3.37;75.72;100592.66;5002233;28;20058;-70
2021/03/16 06:58:16;;;;;;;9.25;2.90;;;;;;;3.33;75.99;100595.16;5004815;28;20045;-70
2021/03/16 07:01:04;;;;;;;7.15;3.17;;;;;;;3.33;75.82;100584.72;5001087;28;20092;-70
2021/03/16 07:03:50;;;;;;;5.88;2.17;;;;;;;3.37;75.55;100605.69;5001400;28;20056;-71
2021/03/16 07:06:34;;;;;;;4.60;2.45;;;;;;;3.37;75.88;100600.47;5002853;28;20528;-71
2021/03/16 07:09:19;;;;;;;8.00;2.95;;;;;;;3.40;76.45;100613.59;5004521;28;20137;-70
2021/03/16 07:12:04;;;;;;;8.50;2.75;;;;;;;3.45;76.36;100619.81;5001086;28;20133;-71
2021/03/16 07:14:49;;;;;;;7.45;2.72;;;;;;;3.53;75.54;100621.72;5001128;28;20516;-71
2021/03/16 07:17:34;;;;;;;5.57;2.42;;;;;;;3.56;75.74;100616.56;5002472;28;20512;-71
2021/03/16 07:20:19;;;;;;;9.32;3.47;;;;;;;3.58;75.70;100622.72;5006352;28;20104;-71
2021/03/16 07:23:07;;;;;;;9.30;3.58;;;;;;;3.61;76.04;100635.84;5001052;28;20460;-71
2021/03/16 07:25:52;;;;;;;7.57;3.38;;;;;;;3.66;75.74;100626.38;5000733;28;20103;-71
2021/03/16 07:28:36;;;;;;;6.85;3.25;;;;;;;3.71;75.97;100635.22;5002703;28;20155;-71
2021/03/16 07:31:22;;;;;;;10.82;3.30;;;;;;;3.78;75.30;100644.94;5004175;28;20540;-71
2021/03/16 07:34:08;;;;;;;7.57;3.08;;;;;;;3.83;74.56;100647.69;4999791;28;20073;-71
2021/03/16 07:36:54;;;;;;;6.63;2.60;;;;;;;3.87;75.14;100646.88;5000560;28;20054;-71
2021/03/16 07:39:39;;;;;;;6.90;3.08;;;;;;;3.93;74.64;100639.22;5002559;28;20077;-71
2021/03/16 07:42:23;;;;;;;9.27;3.65;;;;;;;4.02;74.44;100649.84;5004066;28;20052;-70
2021/03/16 07:45:07;;;;;;;6.78;2.75;;;;;;;4.06;73.93;100653.41;5000508;28;20046;-71
2021/03/16 07:47:52;;;;;;;9.82;3.28;;;;;;;4.09;74.08;100661.31;5000634;28;20096;-71
2021/03/16 07:50:36;;;;;;;8.60;3.47;;;;;;;4.08;73.00;100677.81;5002079;28;20049;-71
2021/03/16 07:53:27;;;;;;;6.57;2.67;;;;;;;4.14;72.74;100660.56;5003848;28;20053;-71
2021/03/16 07:56:15;;;;;;;7.20;3.03;;;;;;;4.18;72.87;100653.66;5000242;28;20571;-72
2021/03/16 07:59:03;;;;;;;7.40;3.33;;;;;;;4.28;73.29;100668.69;5000284;28;20093;-71
2021/03/16 08:01:48;;;;;;;8.85;3.90;;;;;;;4.32;73.13;100670.53;5003663;28;20125;-71
2021/03/16 08:04:37;;;;;;;8.95;3.42;;;;;;;4.25;72.89;100680.81;5002422;28;20602;-71
2021/03/16 08:07:22;;;;;;;9.95;3.75;;;;;;;4.33;72.72;100697.56;5000290;28;20184;-71
2021/03/16 08:10:07;;;;;;;7.70;3.30;;;;;;;4.30;72.82;100674.84;5000013;28;20049;-72
2021/03/16 08:13:02;;;;;;;7.50;3.40;;;;;;;4.27;72.34;100693.06;5000271;28;20045;-72
2021/03/16 08:15:48;;;;;;;10.85;3.58;;;;;;;4.24;72.17;100687.75;5003140;28;20421;-71
2021/03/16 08:18:34;;;;;;;8.07;3.00;;;;;;;4.26;72.81;100686.06;5002132;28;20053;-71
2021/03/16 08:21:18;;;;;;;7.60;3.15;;;;;;;4.47;72.09;100717.00;4992608;28;20572;-72
2021/03/16 08:24:09;;;;;;;9.18;3.30;;;;;;;4.72;72.44;100697.50;4999957;28;20555;-71
2021/03/16 08:26:54;;;;;;;9.68;2.97;;;;;;;4.82;70.70;100682.84;4999756;28;20577;-72
2021/03/16 08:29:49;;;;;;;6.18;2.80;;;;;;;4.64;70.39;100708.63;5001858;28;20049;-72
2021/03/16 08:32:34;;;;;;;8.82;3.15;;;;;;;4.66;71.95;100702.59;5001997;28;20179;-72
2021/03/16 08:35:19;;;;;;;7.18;3.08;;;;;;;4.84;70.08;100734.34;4999677;28;20044;-72
2021/03/16 08:38:02;;;;;;;7.60;3.00;;;;;;;4.77;69.59;100705.44;4999840;28;20049;-72
2021/03/16 08:40:48;;;;;;;10.13;4.45;;;;;;;4.80;70.30;100703.75;5003028;28;20519;-72
2021/03/16 08:43:33;;;;;;;10.30;3.55;;;;;;;5.13;70.13;100715.72;5002158;28;20049;-72
2021/03/16 08:46:35;;;;;;;5.95;2.80;;;;;;;5.20;68.23;100708.88;4999526;28;20045;-72
2021/03/16 08:49:20;;;;;;;5.80;2.85;;;;;;;5.15;69.12;100715.75;4999713;28;20109;-71
2021/03/16 08:52:04;;;;;;;7.07;2.45;;;;;;;5.06;68.62;100716.47;4999646;28;20096;-72
2021/03/16 08:54:54;;;;;;;8.35;2.65;;;;;;;4.96;68.22;100722.38;5000043;28;20140;-71
2021/03/16 08:57:38;;;;;;;7.53;3.08;;;;;;;5.04;66.93;100732.13;4994800;28;20524;-72
2021/03/16 09:00:30;;;;;;;5.75;2.20;;;;;;;5.13;65.36;100726.19;4999483;28;20101;-72
2021/03/16 09:03:14;;;;;;;10.95;3.70;;;;;;;5.59;67.67;100715.69;4999740;28;20097;-72
2021/03/16 09:05:58;;;;;;;5.55;3.00;;;;;;;5.65;65.49;100723.63;4999601;28;20625;-72
2021/03/16 09:08:46;;;;;;;7.90;3.80;;;;;;;5.49;67.11;100728.59;4996230;28;20045;-72
2021/03/16 09:11:33;;;;;;;6.70;2.60;;;;;;;5.14;67.75;100730.59;5004552;28;20053;-72
2021/03/16 09:14:19;;;;;;;8.10;2.97;;;;;;;4.95;67.30;100763.34;5006845;28;20056;-72
2021/03/16 09:17:05;;;;;;;9.25;3.17;;;;;;;4.99;66.59;100749.47;5003174;28;20100;-72
2021/03/16 09:19:49;;;;;;;5.88;2.15;;;;;;;5.30;65.28;100738.72;5002311;28;20056;-72
2021/03/16 09:22:33;;;;;;;4.55;2.17;;;;;;;5.62;63.09;100726.19;5003725;28;20151;-71
2021/03/16 09:25:17;;;;;;;7.28;2.20;;;;;;;5.59;62.57;100745.34;5014419;28;20500;-72
2021/03/16 09:28:10;;;;;;;6.20;2.30;;;;;;;5.50;65.58;100742.56;5003372;28;20045;-72
2021/03/16 09:30:55;;;;;;;8.10;3.08;;;;;;;5.42;64.89;100745.06;5009868;28;20052;-72
2021/03/16 09:33:42;;;;;;;7.05;3.00;;;;;;;5.44;65.97;100748.56;5005349;28;20120;-73
2021/03/16 09:36:28;;;;;;;11.05;2.90;;;;;;;5.47;65.68;100755.59;5005821;28;20108;-72
2021/03/16 09:39:12;;;;;;;6.47;2.38;;;;;;;5.41;64.49;100763.34;5002974;28;20050;-72
2021/03/16 09:42:01;;;;;;;9.10;3.05;;;;;;;5.47;64.91;100766.06;5001498;28;20034;-72
2021/03/16 09:44:39;;;;;;;10.83;2.97;;;;;;;5.83;64.09;100757.97;5018661;28;20124;-72
2021/03/16 09:47:06;;;;;;;5.95;2.45;;;;;;;5.88;64.75;100756.31;5006173;28;20080;-72
2021/03/16 09:49:34;;;;;;;5.35;2.50;;;;;;;5.82;63.79;100756.22;5004845;28;20038;-72
2021/03/16 09:52:11;;;;;;;11.25;2.58;;;;;;;5.77;64.80;100755.28;5002867;28;20049;-72
2021/03/16 09:54:42;;;;;;;6.13;2.35;;;;;;;5.69;63.47;100762.13;5004484;28;20097;-72
2021/03/16 09:57:10;;;;;;;5.03;2.17;;;;;;;5.85;63.61;100761.50;5005994;28;20034;-72
2021/03/16 09:59:40;;;;;;;7.40;2.30;;;;;;;5.79;63.20;100756.19;5004220;28;20057;-72
2021/03/16 10:02:07;;;;;;;7.13;1.95;;;;;;;5.70;64.27;100761.25;5002689;28;20039;-72
2021/03/16 10:04:47;;;;;;;4.93;1.75;;;;;;;5.83;62.54;100754.50;5003820;28;20050;-72
2021/03/16 10:07:29;;;;;;;8.07;2.13;;;;;;;5.91;60.85;100760.72;5005583;28;20148;-72
2021/03/16 10:10:04;;;;;;;6.43;2.20;;;;;;;6.11;61.12;100761.97;5001121;28;20030;-72
2021/03/16 10:12:30;;;;;;;7.25;2.83;;;;;;;6.05;62.22;100750.50;5003334;28;20746;-72
2021/03/16 10:14:55;;;;;;;6.85;2.17;;;;;;;6.21;61.23;100749.00;5005829;28;20161;-73
2021/03/16 10:17:28;;;;;;;6.18;2.70;;;;;;;6.07;61.54;100754.91;5005514;28;20046;-72
2021/03/16 10:19:55;;;;;;;8.90;2.25;;;;;;;6.28;61.89;100766.59;5000148;28;20077;-73
2021/03/16 10:22:32;;;;;;;8.20;2.38;;;;;;;6.29;60.86;100755.25;5001725;28;20038;-72
2021/03/16 10:25:00;;;;;;;5.85;2.00;;;;;;;6.27;62.14;100770.06;5005580;28;20069;-72
2021/03/16 10:27:31;;;;;;;6.78;2.67;;;;;;;6.36;60.82;100765.81;5005384;28;20037;-74
2021/03/16 10:30:00;;;;;;;6.43;2.10;;;;;;;6.44;60.84;100763.31;5002089;28;20038;-74
2021/03/16 10:32:25;;;;;;;5.72;2.40;;;;;;;6.18;60.46;100777.78;5002302;28;20136;-74
2021/03/16 10:34:51;;;;;;;7.78;2.40;;;;;;;6.32;60.29;100810.34;5005348;28;20179;-73
2021/03/16 10:37:21;;;;;;;4.82;1.88;;;;;;;6.21;59.14;100775.19;5005110;28;20045;-74
2021/03/16 10:39:47;;;;;;;5.57;1.83;;;;;;;6.20;60.27;100776.06;5001908;28;20034;-73
2021/03/16 10:42:13;;;;;;;5.63;1.80;;;;;;;6.30;59.47;100786.72;5001964;28;20173;-74
2021/03/16 10:44:38;;;;;;;5.43;1.52;;;;;;;6.30;59.24;100783.22;5003877;28;20070;-74
2021/03/16 10:47:04;;;;;;;5.18;1.58;;;;;;;6.36;59.42;100775.44;5005038;28;20056;-74
2021/03/16 10:49:29;;;;;;;4.60;1.70;;;;;;;6.39;59.26;100780.72;5004156;28;20030;-74
2021/03/16 10:51:54;;;;;;;4.22;1.52;;;;;;;6.42;58.42;100783.41;5001745;28;20034;-74
2021/03/16 10:54:20;;;;;;;4.95;1.85;;;;;;;6.53;57.95;100797.56;5001725;28;20042;-74
2021/03/16 10:56:45;;;;;;;5.15;1.58;;;;;;;6.62;58.32;100785.44;5004291;28;20033;-73
2021/03/16 10:59:10;;;;;;;6.07;2.20;;;;;;;6.66;58.00;100776.75;5004758;28;20041;-74
2021/03/16 11:01:36;;;;;;;7.75;2.95;;;;;;;6.76;57.98;100781.28;4997484;28;20097;-74
2021/03/16 11:04:01;;;;;;;6.68;1.83;;;;;;;6.72;57.21;100793.44;5009263;28;20033;-74
2021/03/16 11:06:26;;;;;;;3.63;1.50;;;;;;;6.71;56.68;100791.69;5030484;28;20739;-74
2021/03/16 11:08:51;;;;;;;4.72;2.25;;;;;;;7.01;57.05;100782.44;5003605;28;20048;-74
2021/03/16 11:11:17;;;;;;;5.13;1.70;;;;;;;7.28;56.37;100792.38;5000534;28;20034;-73
2021/03/16 11:13:42;;;;;;;4.25;1.35;;;;;;;7.31;55.67;100776.69;4999410;28;20034;-74
2021/03/16 11:16:07;;;;;;;7.35;1.70;;;;;;;7.28;53.39;100784.50;5001366;28;20049;-74
2021/03/16 11:18:33;;;;;;;3.35;1.73;;;;;;;7.01;53.91;100782.44;5002373;28;20053;-73
2021/03/16 11:20:58;;;;;;;3.90;1.23;;;;;;;6.99;54.75;100789.41;5004281;28;20041;-74
2021/03/16 11:23:23;;;;;;;4.88;1.30;;;;;;;7.09;54.66;100777.28;4995450;28;20042;-73
2021/03/16 11:25:49;;;;;;;3.58;1.30;;;;;;;7.11;54.75;100783.44;5000769;28;20064;-75
2021/03/16 11:28:14;;;;;;;3.97;1.23;;;;;;;7.15;54.66;100775.63;5001109;28;20022;-74
2021/03/16 11:30:40;;;;;;;4.70;1.40;;;;;;;7.08;54.32;100794.78;5003139;28;20038;-74
2021/03/16 11:33:05;;;;;;;5.45;1.40;;;;;;;6.95;55.16;100780.63;5004046;28;20172;-74
2021/03/16 11:35:49;;;;;;;6.30;1.73;;;;;;;7.05;55.33;100773.75;5000729;28;20096;-73
2021/03/16 11:38:33;;;;;;;4.28;1.48;;;;;;;7.00;55.85;100783.31;5002310;28;20425;-73
2021/03/16 11:41:17;;;;;;;7.95;1.50;;;;;;;7.01;55.06;100783.31;5005596;28;20053;-73
2021/03/16 11:44:01;;;;;;;4.10;1.40;;;;;;;6.98;54.61;100799.03;5000639;28;20128;-73
2021/03/16 11:46:45;;;;;;;3.10;1.33;;;;;;;7.00;55.52;100780.69;5002530;28;20107;-73
2021/03/16 11:49:29;;;;;;;3.63;1.20;;;;;;;7.11;55.89;100779.06;5003140;28;20064;-73
2021/03/16 11:52:13;;;;;;;3.85;1.25;;;;;;;7.05;55.77;100785.97;5001021;28;20049;-73
2021/03/16 11:54:57;;;;;;;3.75;1.35;;;;;;;6.98;56.32;100801.66;5000549;28;20041;-73
2021/03/16 11:57:41;;;;;;;5.47;2.00;;;;;;;7.00;57.05;100804.31;5002905;28;20089;-73
2021/03/16 12:00:26;;;;;;;4.85;1.83;;;;;;;6.91;56.66;100802.44;5003446;28;20048;-74
2021/03/16 12:03:09;;;;;;;7.13;2.25;;;;;;;6.95;56.60;100782.38;5000382;28;20155;-74
2021/03/16 12:05:54;;;;;;;7.22;1.73;;;;;;;7.01;56.15;100780.69;5000238;28;20420;-74
2021/03/16 12:08:38;;;;;;;5.95;2.30;;;;;;;7.03;55.57;100791.22;5002232;28;20041;-74
2021/03/16 12:11:22;;;;;;;5.00;2.28;;;;;;;7.02;55.37;100778.94;5003696;28;20103;-73
2021/03/16 12:14:06;;;;;;;5.82;1.77;;;;;;;6.91;56.35;100773.56;5000375;28;20421;-74
2021/03/16 12:16:50;;;;;;;5.00;2.20;;;;;;;6.71;57.66;100768.09;5000143;28;20419;-74
2021/03/16 12:19:34;;;;;;;4.72;1.90;;;;;;;6.65;57.34;100788.09;5001327;28;20069;-74
2021/03/16 12:22:18;;;;;;;5.80;2.42;;;;;;;6.49;56.83;100785.25;5003628;28;20103;-74
2021/03/16 12:25:07;;;;;;;5.45;2.20;;;;;;;6.33;58.51;100776.28;5000099;28;20570;-74
2021/03/16 12:27:51;;;;;;;6.55;2.83;;;;;;;6.34;58.64;100787.63;5000184;28;20092;-74
2021/03/16 12:30:36;;;;;;;5.63;2.17;;;;;;;6.56;57.94;100783.59;5001447;28;20044;-74
2021/03/16 12:33:21;;;;;;;5.43;2.40;;;;;;;6.75;56.77;100787.34;5003441;28;20048;-74